createdAt,value
2019-03-08T00:02:35.537Z,5.30
2019-03-08T00:05:16.336Z,5.30
2019-03-08T00:07:57.305Z,5.30
2019-03-08T00:10:38.036Z,5.30
2019-03-08T00:13:18.997Z,5.20
2019-03-08T00:15:59.820Z,5.20
2019-03-08T00:18:40.623Z,5.10
2019-03-08T00:21:21.396Z,5.10
2019-03-08T00:24:02.498Z,5.10
2019-03-08T00:26:43.356Z,5.10
2019-03-08T00:29:24.408Z,5.10
2019-03-08T00:32:05.276Z,5.00
2019-03-08T00:34:46.202Z,4.90
2019-03-08T00:37:27.086Z,4.90
2019-03-08T00:40:07.928Z,4.90
2019-03-08T00:42:48.548Z,4.80
2019-03-08T00:45:29.393Z,4.80
2019-03-08T00:48:10.577Z,4.80
2019-03-08T00:50:51.709Z,4.70
2019-03-08T00:53:32.744Z,4.70
2019-03-08T00:56:13.709Z,4.70
2019-03-08T00:58:54.500Z,4.70
2019-03-08T01:01:35.455Z,4.60
2019-03-08T01:04:16.137Z,4.60
2019-03-08T01:06:57.118Z,4.60
2019-03-08T01:09:38.176Z,4.60
2019-03-08T01:12:18.958Z,4.60
2019-03-08T01:14:59.658Z,4.50
2019-03-08T01:17:40.420Z,4.50
2019-03-08T01:20:21.325Z,4.60
2019-03-08T01:23:02.180Z,4.70
2019-03-08T01:25:43.093Z,4.70
2019-03-08T01:28:23.747Z,4.60
2019-03-08T01:31:04.817Z,4.60
2019-03-08T01:33:45.741Z,4.60
2019-03-08T01:36:26.585Z,4.60
2019-03-08T01:39:07.269Z,4.60
2019-03-08T01:41:47.941Z,4.60
2019-03-08T01:44:28.710Z,4.60
2019-03-08T01:47:09.519Z,4.60
2019-03-08T01:49:50.296Z,4.60
2019-03-08T01:52:31.319Z,4.50
2019-03-08T01:55:12.120Z,4.50
2019-03-08T01:57:52.901Z,4.50
2019-03-08T02:00:33.637Z,4.40
2019-03-08T02:03:14.850Z,4.50
2019-03-08T02:05:55.756Z,4.50
2019-03-08T02:08:36.268Z,4.40
2019-03-08T02:11:17.412Z,4.50
2019-03-08T02:13:58.160Z,4.40
2019-03-08T02:16:39.285Z,4.40
2019-03-08T02:19:19.911Z,4.30
2019-03-08T02:22:00.614Z,4.30
2019-03-08T02:24:41.649Z,4.30
2019-03-08T02:27:24.199Z,4.30
2019-03-08T02:30:05.453Z,4.20
2019-03-08T02:32:46.784Z,4.10
2019-03-08T02:35:27.796Z,4.20
2019-03-08T02:38:08.433Z,4.20
2019-03-08T02:40:49.283Z,4.20
2019-03-08T02:43:30.088Z,4.10
2019-03-08T02:46:10.786Z,4.10
2019-03-08T02:48:51.549Z,4.00
2019-03-08T02:51:32.265Z,3.90
2019-03-08T02:54:12.968Z,3.90
2019-03-08T02:56:53.860Z,4.00
2019-03-08T02:59:34.584Z,4.00
2019-03-08T03:02:15.335Z,4.10
2019-03-08T03:04:56.217Z,4.10
2019-03-08T03:07:37.044Z,4.00
2019-03-08T03:10:17.897Z,4.00
2019-03-08T03:12:58.432Z,4.00
2019-03-08T03:15:39.236Z,4.10
2019-03-08T03:18:20.051Z,4.10
2019-03-08T03:21:00.969Z,4.10
2019-03-08T03:23:41.600Z,4.00
2019-03-08T03:26:22.515Z,4.00
2019-03-08T03:29:03.320Z,4.00
2019-03-08T03:31:44.077Z,3.90
2019-03-08T03:34:25.084Z,4.00
2019-03-08T03:37:05.982Z,4.10
2019-03-08T03:39:46.653Z,4.10
2019-03-08T03:42:27.366Z,4.20
2019-03-08T03:45:08.124Z,4.10
2019-03-08T03:47:48.973Z,4.10
2019-03-08T03:50:33.050Z,4.10
2019-03-08T03:53:13.948Z,4.10
2019-03-08T03:55:54.644Z,4.10
2019-03-08T03:58:35.324Z,4.20
2019-03-08T04:01:35.088Z,4.20
2019-03-08T04:04:04.484Z,4.20
2019-03-08T04:06:52.620Z,4.30
2019-03-08T04:09:33.816Z,4.40
2019-03-08T04:12:14.628Z,4.50
2019-03-08T04:14:55.428Z,4.60
2019-03-08T04:17:36.285Z,4.60
2019-03-08T04:20:16.970Z,4.60
2019-03-08T04:22:57.689Z,4.60
2019-03-08T04:25:38.660Z,4.60
2019-03-08T04:28:19.651Z,4.50
2019-03-08T04:31:00.128Z,4.50
2019-03-08T04:33:40.772Z,4.50
2019-03-08T04:36:21.648Z,4.50
2019-03-08T04:39:02.549Z,4.50
2019-03-08T04:41:43.477Z,4.60
2019-03-08T04:44:24.287Z,4.60
2019-03-08T04:47:05.177Z,4.50
2019-03-08T04:49:45.804Z,4.40
2019-03-08T04:52:27.127Z,4.40
2019-03-08T04:55:08.022Z,4.30
2019-03-08T04:57:48.949Z,4.30
2019-03-08T05:00:29.770Z,4.30
2019-03-08T05:03:10.848Z,4.30
2019-03-08T05:05:51.768Z,4.30
2019-03-08T05:08:32.885Z,4.30
2019-03-08T05:11:13.708Z,4.30
2019-03-08T05:13:54.584Z,4.40
2019-03-08T05:16:35.448Z,4.40
2019-03-08T05:19:16.140Z,4.40
2019-03-08T05:21:57.022Z,4.50
2019-03-08T05:24:37.756Z,4.50
2019-03-08T05:27:18.878Z,4.50
2019-03-08T05:29:59.997Z,4.50
2019-03-08T05:32:40.808Z,4.50
2019-03-08T05:35:22.041Z,4.50
2019-03-08T05:38:02.942Z,4.50
2019-03-08T05:40:43.688Z,4.50
2019-03-08T05:43:24.168Z,4.60
2019-03-08T05:46:04.844Z,4.70
2019-03-08T05:48:45.527Z,4.70
2019-03-08T05:51:26.212Z,4.60
2019-03-08T05:54:07.329Z,4.60
2019-03-08T05:56:48.178Z,4.60
2019-03-08T05:59:29.044Z,4.60
2019-03-08T06:02:09.921Z,4.60
2019-03-08T06:04:50.675Z,4.70
2019-03-08T06:07:31.473Z,4.80
2019-03-08T06:10:12.168Z,4.80
2019-03-08T06:12:52.933Z,4.80
2019-03-08T06:15:33.765Z,4.80
2019-03-08T06:18:14.798Z,4.80
2019-03-08T06:20:56.109Z,4.70
2019-03-08T06:23:37.306Z,4.70
2019-03-08T06:26:18.051Z,4.70
2019-03-08T06:28:58.893Z,4.70
2019-03-08T06:31:39.548Z,4.80
2019-03-08T06:36:59.636Z,4.80
2019-03-08T06:39:43.400Z,4.90
2019-03-08T06:42:23.874Z,4.90
2019-03-08T06:45:05.014Z,5.00
2019-03-08T06:47:46.313Z,5.00
2019-03-08T06:50:27.082Z,5.10
2019-03-08T06:53:07.830Z,5.10
2019-03-08T06:55:48.577Z,5.20
2019-03-08T06:58:48.400Z,5.20
2019-03-08T07:01:33.414Z,5.20
2019-03-08T07:04:14.584Z,5.30
2019-03-08T07:06:55.261Z,5.30
2019-03-08T07:09:36.048Z,5.40
2019-03-08T07:12:17.090Z,5.40
2019-03-08T07:14:57.660Z,5.50
2019-03-08T07:17:38.536Z,5.50
2019-03-08T07:20:38.533Z,5.60
2019-03-08T07:23:38.200Z,5.60
2019-03-08T07:26:26.328Z,5.70
2019-03-08T07:29:20.559Z,5.80
2019-03-08T07:32:14.115Z,5.90
2019-03-08T07:35:18.549Z,6.10
2019-03-08T07:38:07.352Z,6.50
2019-03-08T07:41:07.369Z,7.00
2019-03-08T07:44:07.530Z,7.40
2019-03-08T07:47:03.932Z,7.60
2019-03-08T07:49:58.921Z,7.90
2019-03-08T07:52:48.796Z,7.90
2019-03-08T07:58:50.777Z,8.20
2019-03-08T08:01:50.566Z,8.50
2019-03-08T08:04:50.333Z,8.90
2019-03-08T08:07:41.851Z,8.90
2019-03-08T08:10:44.919Z,8.90
2019-03-08T08:13:44.472Z,8.70
2019-03-08T08:16:37.477Z,8.70
2019-03-08T08:19:40.750Z,8.70
2019-03-08T08:22:34.721Z,8.70
2019-03-08T08:25:38.830Z,8.70
2019-03-08T08:28:28.285Z,8.70
2019-03-08T08:31:34.167Z,8.70
2019-03-08T08:34:21.984Z,8.80
2019-03-08T08:37:23.330Z,8.70
2019-03-08T08:43:13.726Z,8.70
2019-03-08T08:46:20.966Z,8.70
2019-03-08T08:49:14.188Z,8.60
2019-03-08T08:55:15.969Z,8.60
2019-03-08T08:58:04.040Z,8.60
2019-03-08T09:01:11.252Z,8.70
2019-03-08T09:04:11.183Z,8.70
2019-03-08T09:07:14.519Z,8.70
2019-03-08T09:10:06.888Z,8.80
2019-03-08T09:13:06.935Z,8.90
2019-03-08T09:19:03.879Z,9.00
2019-03-08T09:22:03.414Z,8.90
2019-03-08T09:24:48.755Z,9.00
2019-03-08T09:27:54.921Z,9.10
2019-03-08T09:30:55.128Z,9.10
2019-03-08T09:33:55.477Z,9.10
2019-03-08T09:39:57.289Z,9.20
2019-03-08T09:43:00.417Z,9.20
2019-03-08T09:46:00.786Z,9.20
2019-03-08T09:48:54.585Z,9.10
2019-03-08T09:51:54.856Z,9.00
2019-03-08T09:54:54.489Z,9.00
2019-03-08T09:57:54.050Z,9.00
2019-03-08T10:00:40.951Z,9.00
2019-03-08T10:03:32.032Z,9.10
2019-03-08T10:06:28.781Z,9.20
2019-03-08T10:09:17.003Z,9.30
2019-03-08T10:12:16.433Z,9.40
2019-03-08T10:15:16.965Z,9.40
2019-03-08T10:18:17.391Z,9.40
2019-03-08T10:21:17.092Z,9.30
2019-03-08T10:24:17.205Z,9.30
2019-03-08T10:27:17.433Z,9.40
2019-03-08T10:30:13.623Z,9.40
2019-03-08T10:33:20.015Z,9.40
2019-03-08T10:36:19.779Z,9.40
2019-03-08T10:39:25.191Z,9.50
2019-03-08T10:42:15.299Z,9.60
2019-03-08T10:45:01.952Z,9.60
2019-03-08T10:47:55.969Z,9.70
2019-03-08T10:50:52.514Z,9.80
2019-03-08T10:53:42.070Z,9.80
2019-03-08T10:59:28.094Z,9.90
2019-03-08T11:02:20.274Z,9.90
2019-03-08T11:05:11.255Z,10.00
2019-03-08T11:08:05.134Z,10.10
2019-03-08T11:11:05.941Z,10.20
2019-03-08T11:13:59.144Z,10.20
2019-03-08T11:17:01.741Z,10.30
2019-03-08T11:23:01.287Z,10.70
2019-03-08T11:26:02.938Z,10.60
2019-03-08T11:28:50.417Z,10.60
2019-03-08T11:31:45.840Z,10.60
2019-03-08T11:34:51.922Z,10.60
2019-03-08T11:37:32.555Z,10.50
2019-03-08T11:40:32.761Z,10.50
2019-03-08T11:43:38.313Z,10.50
2019-03-08T11:46:41.817Z,10.40
2019-03-08T11:49:42.587Z,10.60
2019-03-08T11:52:45.620Z,10.90
2019-03-08T11:55:49.257Z,10.90
2019-03-08T11:58:44.013Z,11.10
2019-03-08T12:01:43.432Z,11.10
2019-03-08T12:07:32.545Z,11.10
2019-03-08T12:10:21.924Z,10.80
2019-03-08T12:13:21.848Z,10.60
2019-03-08T12:16:15.513Z,10.50
2019-03-08T12:19:22.676Z,10.80
2019-03-08T12:22:17.045Z,10.90
2019-03-08T12:25:07.970Z,11.10
2019-03-08T12:28:08.187Z,11.20
2019-03-08T12:30:59.456Z,11.40
2019-03-08T12:33:59.784Z,11.20
2019-03-08T12:37:00.105Z,10.90
2019-03-08T12:39:54.828Z,10.70
2019-03-08T12:42:55.181Z,10.50
2019-03-08T12:48:34.834Z,10.50
2019-03-08T12:51:34.520Z,10.80
2019-03-08T12:54:39.766Z,10.90
2019-03-08T12:57:39.881Z,10.90
2019-03-08T13:00:30.622Z,10.80
2019-03-08T13:03:30.617Z,10.80
2019-03-08T13:06:30.312Z,10.60
2019-03-08T13:09:30.072Z,10.30
2019-03-08T13:12:10.792Z,10.20
2019-03-08T13:14:51.592Z,10.00
2019-03-08T13:17:32.300Z,9.80
2019-03-08T13:20:13.450Z,9.80
2019-03-08T13:22:54.187Z,9.90
2019-03-08T13:25:34.963Z,10.00
2019-03-08T13:28:15.866Z,10.10
2019-03-08T13:30:56.685Z,10.20
2019-03-08T13:33:37.380Z,9.90
2019-03-08T13:36:18.028Z,9.70
2019-03-08T13:38:58.889Z,9.40
2019-03-08T13:41:39.798Z,9.40
2019-03-08T13:44:21.033Z,9.30
2019-03-08T13:46:50.080Z,9.40
2019-03-08T13:49:38.284Z,9.40
2019-03-08T13:52:26.443Z,9.40
2019-03-08T13:55:09.683Z,9.40
2019-03-08T13:57:50.052Z,9.30
2019-03-08T14:00:31.117Z,9.30
2019-03-08T14:03:11.716Z,9.30
2019-03-08T14:05:52.669Z,9.50
2019-03-08T14:08:33.111Z,9.70
2019-03-08T14:11:14.531Z,9.80
2019-03-08T14:13:55.024Z,9.70
2019-03-08T14:16:35.648Z,9.60
2019-03-08T14:19:16.392Z,9.50
2019-03-08T14:21:57.412Z,9.40
2019-03-08T14:24:38.616Z,9.40
2019-03-08T14:27:19.405Z,9.40
2019-03-08T14:30:00.822Z,9.50
2019-03-08T14:32:41.986Z,9.60
2019-03-08T14:35:26.040Z,9.60
2019-03-08T14:38:04.986Z,9.70
2019-03-08T14:44:05.938Z,9.50
2019-03-08T14:47:05.728Z,9.20
2019-03-08T14:49:46.107Z,9.00
2019-03-08T14:52:15.220Z,8.90
2019-03-08T14:55:03.506Z,8.80
2019-03-08T14:57:55.176Z,8.70
2019-03-08T15:00:34.666Z,8.70
2019-03-08T15:03:24.859Z,8.60
2019-03-08T15:06:14.112Z,8.60
2019-03-08T15:08:55.035Z,8.50
2019-03-08T15:11:37.409Z,8.50
2019-03-08T15:14:18.146Z,8.60
2019-03-08T15:17:08.623Z,8.70
2019-03-08T15:19:41.862Z,8.70
2019-03-08T15:22:23.200Z,8.70
2019-03-08T15:25:03.882Z,8.70
2019-03-08T15:27:44.306Z,8.80
2019-03-08T15:30:15.005Z,8.70
2019-03-08T15:33:03.152Z,8.70
2019-03-08T15:35:43.848Z,8.60
2019-03-08T15:38:24.828Z,8.60
2019-03-08T15:41:05.574Z,8.60
2019-03-08T15:43:47.054Z,8.50
2019-03-08T15:46:32.306Z,8.50
2019-03-08T15:49:13.609Z,8.40
2019-03-08T15:51:54.385Z,8.40
2019-03-08T15:54:35.704Z,8.30
2019-03-08T15:57:16.482Z,8.30
2019-03-08T15:59:45.550Z,8.30
2019-03-08T16:02:33.683Z,8.30
2019-03-08T16:05:14.540Z,8.20
2019-03-08T16:07:57.906Z,8.20
2019-03-08T16:10:37.838Z,8.20
2019-03-08T16:13:18.764Z,8.20
2019-03-08T16:15:59.830Z,8.20
2019-03-08T16:18:44.441Z,8.20
2019-03-08T16:21:24.886Z,8.10
2019-03-08T16:24:05.691Z,8.10
2019-03-08T16:26:46.564Z,8.10
2019-03-08T16:29:27.390Z,8.10
2019-03-08T16:35:35.297Z,8.00
2019-03-08T16:41:36.615Z,7.80
2019-03-08T16:44:36.654Z,7.70
2019-03-08T16:47:37.199Z,7.70
2019-03-08T16:50:43.552Z,7.60
2019-03-08T16:53:39.596Z,7.60
2019-03-08T16:56:42.009Z,7.50
2019-03-08T16:59:44.886Z,7.50
2019-03-08T17:02:34.007Z,7.40
2019-03-08T17:05:34.121Z,7.30
2019-03-08T17:08:33.721Z,7.20
2019-03-08T17:14:09.456Z,7.10
2019-03-08T17:19:58.900Z,7.00
2019-03-08T17:22:58.571Z,7.00
2019-03-08T17:25:54.183Z,6.90
2019-03-08T17:28:56.631Z,6.90
2019-03-08T17:31:59.262Z,6.80
2019-03-08T17:38:02.030Z,6.70
2019-03-08T17:40:51.285Z,6.70
2019-03-08T17:43:49.421Z,6.70
2019-03-08T17:46:49.460Z,6.70
2019-03-08T17:49:49.792Z,6.70
2019-03-08T17:55:53.188Z,6.60
2019-03-08T17:58:53.246Z,6.60
2019-03-08T18:01:52.760Z,6.50
2019-03-08T18:04:53.046Z,6.50
2019-03-08T18:07:53.382Z,6.50
2019-03-08T18:10:53.768Z,6.40
2019-03-08T18:13:43.586Z,6.30
2019-03-08T18:16:43.230Z,6.20
2019-03-08T18:19:33.404Z,6.20
2019-03-08T18:22:29.784Z,6.20
2019-03-08T18:25:29.908Z,6.20
2019-03-08T18:28:29.429Z,6.20
2019-03-08T18:31:24.951Z,6.10
2019-03-08T18:34:24.707Z,6.10
2019-03-08T18:37:21.672Z,6.10
2019-03-08T18:40:21.775Z,6.10
2019-03-08T18:43:24.884Z,6.00
2019-03-08T18:46:24.716Z,6.00
2019-03-08T18:49:27.115Z,6.00
2019-03-08T18:52:32.880Z,6.00
2019-03-08T18:55:35.610Z,6.00
2019-03-08T18:58:35.371Z,6.10
2019-03-08T19:04:39.961Z,6.00
2019-03-08T19:07:45.763Z,6.00
2019-03-08T19:10:45.933Z,5.90
2019-03-08T19:13:51.751Z,6.00
2019-03-08T19:16:51.756Z,6.10
2019-03-08T19:19:43.701Z,6.10
2019-03-08T19:22:32.486Z,6.10
2019-03-08T19:25:21.353Z,6.10
2019-03-08T19:31:04.175Z,6.10
2019-03-08T19:34:09.461Z,6.10
2019-03-08T19:37:09.691Z,6.00
2019-03-08T19:40:12.232Z,6.00
2019-03-08T19:43:11.932Z,6.00
2019-03-08T19:49:10.928Z,5.90
2019-03-08T19:52:11.297Z,5.90
2019-03-08T19:55:11.711Z,5.90
2019-03-08T20:01:13.548Z,5.90
2019-03-08T20:03:50.973Z,5.90
2019-03-08T20:06:58.201Z,5.90
2019-03-08T20:09:56.340Z,5.90
2019-03-08T20:12:56.266Z,5.90
2019-03-08T20:15:55.845Z,5.90
2019-03-08T20:18:56.330Z,6.00
2019-03-08T20:21:45.775Z,5.90
2019-03-08T20:24:38.256Z,5.80
2019-03-08T20:27:41.384Z,5.70
2019-03-08T20:30:41.666Z,5.60
2019-03-08T20:33:35.540Z,5.60
2019-03-08T20:36:23.624Z,5.60
2019-03-08T20:39:30.836Z,5.60
2019-03-08T20:42:37.011Z,5.70
2019-03-08T20:45:23.488Z,5.60
2019-03-08T20:48:03.873Z,5.60
2019-03-08T20:50:44.456Z,5.60
2019-03-08T20:53:25.415Z,5.60
2019-03-08T20:56:05.891Z,5.50
2019-03-08T20:58:46.791Z,5.50
2019-03-08T21:01:28.086Z,5.50
2019-03-08T21:04:12.324Z,5.50
2019-03-08T21:06:52.859Z,5.40
2019-03-08T21:09:33.771Z,5.40
2019-03-08T21:12:14.651Z,5.40
2019-03-08T21:14:55.459Z,5.30
2019-03-08T21:17:36.704Z,5.30
2019-03-08T21:20:17.261Z,5.20
2019-03-08T21:22:58.554Z,5.20
2019-03-08T21:25:39.441Z,5.20
2019-03-08T21:28:20.224Z,5.20
2019-03-08T21:31:01.418Z,5.20
2019-03-08T21:33:41.891Z,5.20
2019-03-08T21:36:22.359Z,5.20
2019-03-08T21:39:04.290Z,5.20
2019-03-08T21:41:45.446Z,5.10
2019-03-08T21:44:26.193Z,5.10
2019-03-08T21:47:06.846Z,5.10
2019-03-08T21:55:06.352Z,5.10
2019-03-08T21:57:47.718Z,5.00
2019-03-08T22:00:28.916Z,5.00
2019-03-08T22:03:10.025Z,5.00
2019-03-08T22:05:51.000Z,5.00
2019-03-08T22:08:32.050Z,5.00
2019-03-08T22:11:32.214Z,5.00
2019-03-08T22:14:13.775Z,5.10
2019-03-08T22:16:54.625Z,5.10
2019-03-08T22:19:35.422Z,5.10
2019-03-08T22:22:15.924Z,5.10
2019-03-08T22:24:56.855Z,5.10
2019-03-08T22:27:37.898Z,5.10
2019-03-08T22:30:18.703Z,5.20
2019-03-08T22:32:59.664Z,5.20
2019-03-08T22:35:40.676Z,5.20
2019-03-08T22:38:21.492Z,5.20
2019-03-08T22:41:02.305Z,5.20
2019-03-08T22:43:43.185Z,5.30
2019-03-08T22:46:24.116Z,5.40
2019-03-08T22:49:05.441Z,5.40
2019-03-08T22:57:04.124Z,5.70
2019-03-08T22:59:45.417Z,5.60
2019-03-08T23:02:26.007Z,5.60
2019-03-08T23:05:06.905Z,5.60
2019-03-08T23:07:47.768Z,5.50
2019-03-08T23:10:28.617Z,5.40
2019-03-08T23:13:09.489Z,5.40
2019-03-08T23:15:50.412Z,5.30
2019-03-08T23:18:31.292Z,5.20
2019-03-08T23:21:12.109Z,5.20
2019-03-08T23:23:53.209Z,5.20
2019-03-08T23:29:53.724Z,5.10
2019-03-08T23:32:42.534Z,5.20
2019-03-08T23:35:23.493Z,5.20
2019-03-08T23:38:04.345Z,5.20
2019-03-08T23:40:45.209Z,5.20
2019-03-08T23:43:25.856Z,5.20
2019-03-08T23:46:07.019Z,5.20
2019-03-08T23:48:48.087Z,5.20
2019-03-08T23:51:28.919Z,5.20
2019-03-08T23:54:09.599Z,5.20
2019-03-08T23:56:50.349Z,5.30
2019-03-08T23:59:31.326Z,5.30
